createdAt,value
2018-11-11T00:02:06.875Z,12.40
2018-11-11T00:04:34.962Z,12.30
2018-11-11T00:07:03.021Z,12.40
2018-11-11T00:09:31.074Z,12.40
2018-11-11T00:11:59.134Z,12.40
2018-11-11T00:14:27.165Z,12.40
2018-11-11T00:16:55.213Z,12.40
2018-11-11T00:19:23.261Z,12.40
2018-11-11T00:21:51.524Z,12.40
2018-11-11T00:24:19.502Z,12.50
2018-11-11T00:26:47.564Z,12.40
2018-11-11T00:29:15.601Z,12.50
2018-11-11T00:31:43.680Z,12.50
2018-11-11T00:34:11.738Z,12.60
2018-11-11T00:36:40.095Z,12.60
2018-11-11T00:39:09.493Z,12.60
2018-11-11T00:41:37.546Z,12.60
2018-11-11T00:44:05.862Z,12.60
2018-11-11T00:46:33.898Z,12.60
2018-11-11T00:49:01.954Z,12.60
2018-11-11T00:51:30.003Z,12.50
2018-11-11T00:53:58.328Z,12.40
2018-11-11T00:56:26.361Z,12.40
2018-11-11T00:58:54.405Z,12.40
2018-11-11T01:01:22.453Z,12.40
2018-11-11T01:03:50.509Z,12.40
2018-11-11T01:06:18.573Z,12.30
2018-11-11T01:08:46.627Z,12.30
2018-11-11T01:11:14.692Z,12.30
2018-11-11T01:13:42.767Z,12.20
2018-11-11T01:16:10.820Z,12.30
2018-11-11T01:18:39.396Z,12.30
2018-11-11T01:21:07.541Z,12.20
2018-11-11T01:23:35.594Z,12.30
2018-11-11T01:26:03.710Z,12.30
2018-11-11T01:28:31.762Z,12.30
2018-11-11T01:30:59.809Z,12.30
2018-11-11T01:33:27.890Z,12.30
2018-11-11T01:35:55.958Z,12.10
2018-11-11T01:38:24.010Z,12.20
2018-11-11T01:40:52.080Z,12.20
2018-11-11T01:43:20.125Z,12.20
2018-11-11T01:45:48.186Z,12.20
2018-11-11T01:48:16.223Z,12.20
2018-11-11T01:50:44.307Z,12.20
2018-11-11T01:53:12.357Z,12.20
2018-11-11T01:55:40.446Z,12.10
2018-11-11T01:58:08.494Z,12.10
2018-11-11T02:00:36.542Z,12.10
2018-11-11T02:03:04.625Z,12.10
2018-11-11T02:05:32.680Z,12.00
2018-11-11T02:08:00.733Z,12.00
2018-11-11T02:10:29.243Z,12.00
2018-11-11T02:12:57.294Z,12.00
2018-11-11T02:15:25.343Z,12.00
2018-11-11T02:17:53.426Z,12.10
2018-11-11T02:20:21.477Z,12.00
2018-11-11T02:22:50.625Z,12.00
2018-11-11T02:25:18.754Z,12.00
2018-11-11T02:27:47.114Z,12.00
2018-11-11T02:30:16.366Z,12.00
2018-11-11T02:32:44.854Z,12.00
2018-11-11T02:35:13.118Z,12.00
2018-11-11T02:37:41.329Z,11.90
2018-11-11T02:40:11.581Z,11.90
2018-11-11T02:42:39.670Z,11.90
2018-11-11T02:45:09.404Z,11.90
2018-11-11T02:47:37.575Z,12.00
2018-11-11T02:50:06.838Z,11.90
2018-11-11T02:52:34.869Z,11.90
2018-11-11T02:55:02.933Z,11.90
2018-11-11T02:57:30.974Z,11.90
2018-11-11T02:59:59.033Z,11.90
2018-11-11T03:02:27.218Z,11.80
2018-11-11T03:04:55.273Z,11.90
2018-11-11T03:07:23.317Z,11.80
2018-11-11T03:09:51.613Z,11.90
2018-11-11T03:12:19.651Z,11.90
2018-11-11T03:14:47.782Z,11.90
2018-11-11T03:17:15.834Z,11.90
2018-11-11T03:19:44.006Z,11.80
2018-11-11T03:22:12.049Z,11.80
2018-11-11T03:24:40.148Z,11.80
2018-11-11T03:27:08.195Z,11.80
2018-11-11T03:29:36.238Z,11.80
2018-11-11T03:32:04.526Z,11.70
2018-11-11T03:34:32.603Z,11.70
2018-11-11T03:37:00.660Z,11.70
2018-11-11T03:39:28.709Z,11.80
2018-11-11T03:41:56.797Z,11.80
2018-11-11T03:44:24.857Z,11.80
2018-11-11T03:46:52.931Z,11.80
2018-11-11T03:49:21.067Z,11.80
2018-11-11T03:51:49.260Z,11.80
2018-11-11T03:54:17.322Z,11.80
2018-11-11T03:56:45.379Z,11.80
2018-11-11T03:59:13.429Z,11.80
2018-11-11T04:01:41.477Z,11.80
2018-11-11T04:04:09.562Z,11.80
2018-11-11T04:06:37.606Z,11.80
2018-11-11T04:09:08.871Z,11.90
2018-11-11T04:11:37.473Z,11.80
2018-11-11T04:14:05.630Z,11.90
2018-11-11T04:16:33.670Z,11.80
2018-11-11T04:19:01.737Z,11.80
2018-11-11T04:21:29.769Z,11.80
2018-11-11T04:23:58.414Z,11.80
2018-11-11T04:26:26.554Z,11.80
2018-11-11T04:28:54.635Z,11.90
2018-11-11T04:31:22.842Z,11.90
2018-11-11T04:33:50.884Z,11.90
2018-11-11T04:36:18.960Z,11.90
2018-11-11T04:38:47.005Z,11.90
2018-11-11T04:41:15.068Z,11.90
2018-11-11T04:43:43.126Z,11.90
2018-11-11T04:46:11.275Z,11.90
2018-11-11T04:48:39.330Z,11.90
2018-11-11T04:51:07.406Z,11.90
2018-11-11T04:53:35.453Z,11.90
2018-11-11T04:56:03.505Z,11.90
2018-11-11T04:58:31.557Z,11.90
2018-11-11T05:00:59.643Z,11.90
2018-11-11T05:03:27.689Z,12.00
2018-11-11T05:05:55.744Z,12.00
2018-11-11T05:08:23.793Z,12.00
2018-11-11T05:10:52.099Z,11.90
2018-11-11T05:13:20.133Z,11.90
2018-11-11T05:15:48.198Z,12.00
2018-11-11T05:18:16.256Z,12.00
2018-11-11T05:20:44.306Z,12.10
2018-11-11T05:23:12.367Z,12.00
2018-11-11T05:25:40.421Z,12.00
2018-11-11T05:28:08.507Z,12.00
2018-11-11T05:30:36.546Z,12.10
2018-11-11T05:33:04.598Z,12.00
2018-11-11T05:35:33.420Z,12.10
2018-11-11T05:38:01.438Z,12.10
2018-11-11T05:40:29.493Z,12.10
2018-11-11T05:42:57.542Z,12.10
2018-11-11T05:45:25.595Z,12.10
2018-11-11T05:47:53.650Z,12.10
2018-11-11T05:50:21.700Z,12.00
2018-11-11T05:52:49.740Z,12.00
2018-11-11T05:55:17.817Z,12.10
2018-11-11T05:57:45.869Z,12.10
2018-11-11T06:00:15.153Z,12.20
2018-11-11T06:02:43.562Z,12.10
2018-11-11T06:05:12.663Z,12.10
2018-11-11T06:07:40.728Z,12.20
2018-11-11T06:10:10.321Z,12.00
2018-11-11T06:12:38.366Z,12.10
2018-11-11T06:15:08.118Z,12.10
2018-11-11T06:17:36.610Z,12.10
2018-11-11T06:20:05.706Z,12.10
2018-11-11T06:22:33.748Z,12.20
2018-11-11T06:25:01.794Z,12.20
2018-11-11T06:27:29.848Z,12.20
2018-11-11T06:29:57.889Z,12.20
2018-11-11T06:32:25.942Z,12.20
2018-11-11T06:34:53.985Z,12.20
2018-11-11T06:37:22.065Z,12.20
2018-11-11T06:39:50.106Z,12.30
2018-11-11T06:42:18.149Z,12.20
2018-11-11T06:44:46.200Z,12.20
2018-11-11T06:47:14.373Z,12.30
2018-11-11T06:49:42.482Z,12.20
2018-11-11T06:52:10.562Z,12.30
2018-11-11T06:54:39.230Z,12.30
2018-11-11T06:57:07.287Z,12.30
2018-11-11T06:59:35.325Z,12.30
2018-11-11T07:02:03.381Z,12.20
2018-11-11T07:04:31.498Z,12.20
2018-11-11T07:06:59.545Z,12.20
2018-11-11T07:09:27.577Z,12.40
2018-11-11T07:11:55.655Z,12.40
2018-11-11T07:14:23.685Z,12.40
2018-11-11T07:16:51.770Z,12.40
2018-11-11T07:19:19.801Z,12.60
2018-11-11T07:21:47.844Z,12.50
2018-11-11T07:24:16.262Z,12.70
2018-11-11T07:26:44.542Z,12.70
2018-11-11T07:29:12.570Z,12.80
2018-11-11T07:31:40.613Z,12.70
2018-11-11T07:34:08.645Z,12.80
2018-11-11T07:36:36.721Z,12.90
2018-11-11T07:39:09.065Z,13.00
2018-11-11T07:41:37.253Z,13.00
2018-11-11T07:44:05.702Z,12.90
2018-11-11T07:46:34.006Z,12.90
2018-11-11T07:49:02.058Z,12.70
2018-11-11T07:51:30.098Z,12.80
2018-11-11T07:53:58.154Z,12.70
2018-11-11T07:56:26.212Z,12.70
2018-11-11T07:58:54.267Z,12.70
2018-11-11T08:01:22.370Z,12.60
2018-11-11T08:03:50.421Z,12.70
2018-11-11T08:06:18.570Z,12.70
2018-11-11T08:08:46.665Z,12.80
2018-11-11T08:11:26.252Z,12.70
2018-11-11T08:13:54.309Z,12.80
2018-11-11T08:16:22.370Z,12.80
2018-11-11T08:18:50.425Z,13.00
2018-11-11T08:21:18.478Z,12.90
2018-11-11T08:23:46.542Z,13.00
2018-11-11T08:26:14.584Z,13.00
2018-11-11T08:28:42.674Z,13.10
2018-11-11T08:31:10.774Z,13.00
2018-11-11T08:33:38.842Z,13.00
2018-11-11T08:36:06.861Z,13.00
2018-11-11T08:38:35.109Z,13.00
2018-11-11T08:41:03.174Z,13.10
2018-11-11T08:43:31.214Z,13.00
2018-11-11T08:45:59.309Z,13.10
2018-11-11T08:48:27.353Z,13.10
2018-11-11T08:50:55.462Z,13.00
2018-11-11T08:53:23.519Z,13.00
2018-11-11T08:55:51.563Z,13.00
2018-11-11T08:58:19.619Z,13.00
2018-11-11T09:00:47.747Z,12.90
2018-11-11T09:03:15.802Z,12.80
2018-11-11T09:05:44.191Z,12.80
2018-11-11T09:08:12.521Z,12.80
2018-11-11T09:10:40.771Z,13.00
2018-11-11T09:13:08.790Z,12.90
2018-11-11T09:15:36.848Z,12.90
2018-11-11T09:18:04.917Z,12.90
2018-11-11T09:20:33.054Z,12.90
2018-11-11T09:23:01.078Z,12.80
2018-11-11T09:25:29.154Z,12.90
2018-11-11T09:27:57.490Z,12.90
2018-11-11T09:30:25.624Z,12.90
2018-11-11T09:32:53.621Z,13.00
2018-11-11T09:35:21.784Z,13.20
2018-11-11T09:37:49.742Z,13.30
2018-11-11T09:40:17.798Z,13.30
2018-11-11T09:42:45.861Z,13.10
2018-11-11T09:45:15.160Z,13.10
2018-11-11T09:47:43.749Z,13.10
2018-11-11T09:50:13.137Z,13.00
2018-11-11T09:52:41.200Z,13.00
2018-11-11T09:55:11.658Z,13.00
2018-11-11T09:57:40.094Z,13.10
2018-11-11T10:00:14.601Z,13.20
2018-11-11T10:02:44.330Z,13.20
2018-11-11T10:05:17.926Z,13.20
2018-11-11T10:07:52.039Z,13.10
2018-11-11T10:10:26.369Z,13.20
2018-11-11T10:14:03.219Z,13.20
2018-11-11T10:16:37.562Z,13.10
2018-11-11T10:21:14.631Z,13.10
2018-11-11T10:23:48.318Z,13.00
2018-11-11T10:26:20.934Z,13.00
2018-11-11T10:29:02.236Z,13.00
2018-11-11T10:31:35.679Z,13.00
2018-11-11T10:34:09.082Z,13.10
2018-11-11T10:36:42.673Z,13.30
2018-11-11T10:39:14.863Z,13.40
2018-11-11T10:43:49.510Z,13.40
2018-11-11T10:46:31.102Z,13.40
2018-11-11T10:49:02.642Z,13.40
2018-11-11T10:51:31.977Z,13.40
2018-11-11T10:54:00.042Z,13.50
2018-11-11T10:56:28.102Z,13.40
2018-11-11T10:58:56.346Z,13.30
2018-11-11T11:03:34.159Z,13.30
2018-11-11T11:06:03.010Z,13.20
2018-11-11T11:08:31.141Z,13.20
2018-11-11T11:10:59.231Z,13.20
2018-11-11T11:13:28.051Z,13.30
2018-11-11T11:15:55.997Z,13.30
2018-11-11T11:18:24.059Z,13.30
2018-11-11T11:20:52.303Z,13.40
2018-11-11T11:23:20.633Z,13.40
2018-11-11T11:25:48.953Z,13.50
2018-11-11T11:28:16.921Z,13.60
2018-11-11T11:30:44.994Z,13.60
2018-11-11T11:33:13.058Z,13.70
2018-11-11T11:35:41.140Z,13.60
2018-11-11T11:38:09.171Z,13.70
2018-11-11T11:40:37.207Z,13.60
2018-11-11T11:43:06.170Z,13.60
2018-11-11T11:45:34.247Z,13.60
2018-11-11T11:48:02.291Z,13.70
2018-11-11T11:50:30.780Z,13.60
2018-11-11T11:52:58.764Z,13.80
2018-11-11T11:55:26.741Z,13.90
2018-11-11T11:58:14.783Z,14.00
2018-11-11T12:00:42.966Z,14.00
2018-11-11T12:03:11.104Z,14.10
2018-11-11T12:05:39.548Z,14.00
2018-11-11T12:08:07.610Z,14.10
2018-11-11T12:10:35.702Z,14.20
2018-11-11T12:13:03.779Z,14.20
2018-11-11T12:15:31.989Z,14.20
2018-11-11T12:18:00.166Z,14.20
2018-11-11T12:20:28.210Z,14.20
2018-11-11T12:22:57.029Z,14.10
2018-11-11T12:25:25.363Z,14.10
2018-11-11T12:27:54.273Z,14.10
2018-11-11T12:30:22.482Z,14.10
2018-11-11T12:32:50.478Z,14.10
2018-11-11T12:35:18.506Z,14.20
2018-11-11T12:37:46.585Z,14.30
2018-11-11T12:40:14.858Z,14.30
2018-11-11T12:42:43.603Z,14.50
2018-11-11T12:45:12.248Z,14.30
2018-11-11T12:47:40.297Z,14.20
2018-11-11T12:50:09.818Z,14.10
2018-11-11T12:52:37.969Z,14.00
2018-11-11T12:55:06.248Z,14.10
2018-11-11T12:57:34.245Z,14.10
2018-11-11T13:00:02.310Z,14.60
2018-11-11T13:02:30.354Z,15.00
2018-11-11T13:04:58.401Z,15.10
2018-11-11T13:07:26.538Z,15.10
2018-11-11T13:09:54.967Z,15.10
2018-11-11T13:12:23.153Z,15.10
2018-11-11T13:14:51.107Z,15.10
2018-11-11T13:17:19.161Z,15.10
2018-11-11T13:19:47.279Z,15.10
2018-11-11T13:22:15.404Z,15.30
2018-11-11T13:24:43.322Z,15.10
2018-11-11T13:27:11.415Z,15.00
2018-11-11T13:29:39.461Z,14.90
2018-11-11T13:32:07.647Z,14.80
2018-11-11T13:34:35.625Z,14.90
2018-11-11T13:37:03.729Z,14.70
2018-11-11T13:39:31.769Z,14.20
2018-11-11T13:41:59.841Z,14.10
2018-11-11T13:44:27.886Z,14.00
2018-11-11T13:46:57.010Z,14.00
2018-11-11T13:49:25.038Z,14.00
2018-11-11T13:51:53.690Z,14.00
2018-11-11T13:54:21.789Z,14.00
2018-11-11T13:56:50.769Z,14.10
2018-11-11T13:59:19.530Z,14.10
2018-11-11T14:01:47.686Z,14.10
2018-11-11T14:04:16.840Z,14.00
2018-11-11T14:06:44.881Z,13.90
2018-11-11T14:09:14.322Z,13.90
2018-11-11T14:11:42.481Z,13.90
2018-11-11T14:14:10.626Z,14.00
2018-11-11T14:16:39.030Z,14.10
2018-11-11T14:19:07.841Z,14.10
2018-11-11T14:21:35.509Z,14.20
2018-11-11T14:24:03.976Z,14.20
2018-11-11T14:26:32.195Z,14.20
2018-11-11T14:29:00.173Z,14.30
2018-11-11T14:31:28.230Z,14.30
2018-11-11T14:33:56.317Z,14.20
2018-11-11T14:36:24.362Z,14.10
2018-11-11T14:38:52.422Z,14.10
2018-11-11T14:41:21.165Z,14.10
2018-11-11T14:43:49.336Z,14.10
2018-11-11T14:46:17.483Z,14.10
2018-11-11T14:48:45.422Z,14.10
2018-11-11T14:51:14.041Z,14.10
2018-11-11T14:53:42.107Z,14.10
2018-11-11T14:56:10.170Z,14.10
2018-11-11T14:58:38.301Z,14.10
2018-11-11T15:01:06.334Z,14.10
2018-11-11T15:03:34.473Z,14.10
2018-11-11T15:06:02.541Z,14.00
2018-11-11T15:08:30.673Z,14.00
2018-11-11T15:10:58.740Z,13.90
2018-11-11T15:13:26.794Z,13.90
2018-11-11T15:15:54.883Z,13.90
2018-11-11T15:18:22.901Z,13.90
2018-11-11T15:20:51.142Z,13.90
2018-11-11T15:23:20.077Z,13.90
2018-11-11T15:25:48.155Z,13.80
2018-11-11T15:28:16.181Z,13.80
2018-11-11T15:30:44.352Z,13.70
2018-11-11T15:33:12.909Z,13.60
2018-11-11T15:35:40.970Z,13.70
2018-11-11T15:38:09.018Z,13.60
2018-11-11T15:40:38.071Z,13.60
2018-11-11T15:43:06.547Z,13.60
2018-11-11T15:45:35.321Z,13.50
2018-11-11T15:48:03.840Z,13.60
2018-11-11T15:50:32.997Z,13.60
2018-11-11T15:53:02.401Z,13.60
2018-11-11T15:55:32.401Z,13.50
2018-11-11T15:58:00.474Z,13.50
2018-11-11T16:00:30.935Z,13.50
2018-11-11T16:02:59.018Z,13.50
2018-11-11T16:05:27.057Z,13.40
2018-11-11T16:07:55.837Z,13.40
2018-11-11T16:10:25.306Z,13.40
2018-11-11T16:12:54.340Z,13.40
2018-11-11T16:15:30.716Z,13.40
2018-11-11T16:18:00.436Z,13.50
2018-11-11T16:20:29.425Z,13.40
2018-11-11T16:22:58.381Z,13.40
2018-11-11T16:25:26.452Z,13.40
2018-11-11T16:27:54.514Z,13.30
2018-11-11T16:30:23.856Z,13.30
2018-11-11T16:32:52.526Z,13.40
2018-11-11T16:35:21.930Z,13.40
2018-11-11T16:37:49.978Z,13.40
2018-11-11T16:40:19.397Z,13.40
2018-11-11T16:42:48.844Z,13.50
2018-11-11T16:45:18.418Z,13.50
2018-11-11T16:47:46.577Z,13.50
2018-11-11T16:50:17.718Z,13.50
2018-11-11T16:52:46.566Z,13.50
2018-11-11T16:55:15.863Z,13.60
2018-11-11T16:57:45.315Z,13.60
2018-11-11T17:00:15.235Z,13.60
2018-11-11T17:02:43.963Z,13.60
2018-11-11T17:05:19.904Z,13.70
2018-11-11T17:07:48.250Z,13.80
2018-11-11T17:10:17.650Z,13.80
2018-11-11T17:12:46.571Z,13.80
2018-11-11T17:15:15.848Z,13.60
2018-11-11T17:17:44.913Z,13.50
2018-11-11T17:20:15.719Z,13.60
2018-11-11T17:22:44.270Z,13.40
2018-11-11T17:25:13.246Z,13.40
2018-11-11T17:27:41.574Z,13.40
2018-11-11T17:30:11.536Z,13.30
2018-11-11T17:32:39.733Z,13.30
2018-11-11T17:35:08.307Z,13.30
2018-11-11T17:37:36.349Z,13.30
2018-11-11T17:40:06.918Z,13.30
2018-11-11T17:42:34.990Z,13.30
2018-11-11T17:45:03.046Z,13.30
2018-11-11T17:47:31.102Z,13.20
2018-11-11T17:49:59.161Z,13.10
2018-11-11T17:52:28.578Z,13.00
2018-11-11T17:54:56.629Z,13.00
2018-11-11T17:57:25.335Z,12.90
2018-11-11T17:59:53.379Z,12.90
2018-11-11T18:02:21.504Z,12.90
2018-11-11T18:04:49.542Z,12.80
2018-11-11T18:07:17.682Z,12.90
2018-11-11T18:09:45.730Z,12.80
2018-11-11T18:12:13.866Z,12.90
2018-11-11T18:14:41.906Z,13.00
2018-11-11T18:17:10.061Z,13.10
2018-11-11T18:19:38.002Z,13.20
2018-11-11T18:22:06.113Z,13.20
2018-11-11T18:24:34.197Z,13.30
2018-11-11T18:27:02.418Z,13.40
2018-11-11T18:29:30.549Z,13.20
2018-11-11T18:31:58.589Z,13.10
2018-11-11T18:34:27.083Z,13.00
2018-11-11T18:36:55.225Z,12.80
2018-11-11T18:39:23.513Z,12.60
2018-11-11T18:41:51.568Z,12.70
2018-11-11T18:44:19.629Z,12.70
2018-11-11T18:46:48.598Z,12.70
2018-11-11T18:49:16.637Z,12.50
2018-11-11T18:51:44.733Z,12.60
2018-11-11T18:54:12.869Z,12.70
2018-11-11T18:56:41.753Z,12.70
2018-11-11T18:59:09.830Z,12.70
2018-11-11T19:01:37.854Z,12.70
2018-11-11T19:04:06.053Z,12.60
2018-11-11T19:06:34.117Z,12.60
2018-11-11T19:09:02.201Z,12.70
2018-11-11T19:11:30.290Z,12.60
2018-11-11T19:13:58.978Z,12.70
2018-11-11T19:16:27.070Z,12.60
2018-11-11T19:18:55.328Z,12.80
2018-11-11T19:21:23.551Z,12.70
2018-11-11T19:23:51.808Z,12.70
2018-11-11T19:26:20.050Z,12.70
2018-11-11T19:28:48.401Z,12.80
2018-11-11T19:31:17.392Z,12.70
2018-11-11T19:33:46.537Z,12.80
2018-11-11T19:36:14.530Z,12.80
2018-11-11T19:38:43.158Z,12.70
2018-11-11T19:41:11.219Z,12.70
2018-11-11T19:43:54.622Z,12.70
2018-11-11T19:46:23.494Z,12.60
2018-11-11T19:48:51.681Z,12.60
2018-11-11T19:51:19.806Z,12.60
2018-11-11T19:53:48.597Z,12.60
2018-11-11T19:56:16.682Z,12.70
2018-11-11T19:58:45.718Z,12.70
2018-11-11T20:01:13.939Z,12.70
2018-11-11T20:03:42.033Z,12.60
2018-11-11T20:06:10.111Z,12.60
2018-11-11T20:08:38.265Z,12.60
2018-11-11T20:11:06.560Z,12.60
2018-11-11T20:13:34.684Z,12.50
2018-11-11T20:16:03.718Z,12.50
2018-11-11T20:18:31.883Z,12.50
2018-11-11T20:20:59.953Z,12.50
2018-11-11T20:23:28.033Z,12.60
2018-11-11T20:25:56.131Z,12.50
2018-11-11T20:28:24.900Z,12.50
2018-11-11T20:30:53.019Z,12.50
2018-11-11T20:33:21.284Z,12.50
2018-11-11T20:35:49.515Z,12.50
2018-11-11T20:38:17.548Z,12.40
2018-11-11T20:40:45.641Z,12.40
2018-11-11T20:43:13.778Z,12.40
2018-11-11T20:45:42.049Z,12.30
2018-11-11T20:48:10.121Z,12.20
2018-11-11T20:50:38.181Z,12.10
2018-11-11T20:53:06.736Z,12.20
2018-11-11T20:55:34.942Z,12.10
2018-11-11T20:58:05.354Z,12.10
2018-11-11T21:00:34.799Z,12.20
2018-11-11T21:03:03.568Z,12.20
2018-11-11T21:05:31.815Z,12.10
2018-11-11T21:07:59.881Z,12.00
2018-11-11T21:10:29.847Z,12.00
2018-11-11T21:12:59.477Z,12.00
2018-11-11T21:15:30.031Z,12.00
2018-11-11T21:17:58.219Z,12.00
2018-11-11T21:20:28.454Z,12.10
2018-11-11T21:22:57.507Z,12.10
2018-11-11T21:25:25.665Z,12.20
2018-11-11T21:27:53.890Z,12.30
2018-11-11T21:30:27.214Z,13.80
2018-11-11T21:32:55.261Z,12.30
2018-11-11T21:35:23.993Z,12.40
2018-11-11T21:37:52.095Z,12.30
2018-11-11T21:40:22.107Z,12.30
2018-11-11T21:42:50.770Z,12.30
2018-11-11T21:45:20.085Z,12.20
2018-11-11T21:47:48.148Z,12.30
2018-11-11T21:50:18.752Z,12.10
2018-11-11T21:52:54.067Z,12.10
2018-11-11T21:55:22.129Z,12.10
2018-11-11T21:57:50.169Z,12.00
2018-11-11T22:00:18.225Z,12.00
2018-11-11T22:02:46.537Z,12.10
2018-11-11T22:05:14.585Z,12.10
2018-11-11T22:07:43.266Z,12.10
2018-11-11T22:10:13.033Z,12.10
2018-11-11T22:12:41.060Z,12.10
2018-11-11T22:15:10.233Z,12.10
2018-11-11T22:17:38.268Z,12.20
2018-11-11T22:20:07.234Z,12.30
2018-11-11T22:22:35.305Z,12.30
2018-11-11T22:25:03.959Z,12.30
2018-11-11T22:27:31.999Z,12.40
2018-11-11T22:30:00.061Z,12.40
2018-11-11T22:32:28.915Z,12.30
2018-11-11T22:34:57.919Z,12.30
2018-11-11T22:37:25.959Z,12.30
2018-11-11T22:39:54.006Z,12.30
2018-11-11T22:42:22.123Z,12.30
2018-11-11T22:44:50.121Z,12.30
2018-11-11T22:47:18.153Z,12.20
2018-11-11T22:49:46.226Z,12.30
2018-11-11T22:52:14.290Z,12.10
2018-11-11T22:54:42.325Z,12.10
2018-11-11T22:57:10.368Z,12.10
2018-11-11T22:59:40.314Z,12.10
2018-11-11T23:02:08.352Z,12.10
2018-11-11T23:04:36.402Z,12.10
2018-11-11T23:07:04.469Z,12.00
2018-11-11T23:09:32.521Z,12.00
2018-11-11T23:12:00.601Z,12.00
2018-11-11T23:14:28.660Z,12.00
2018-11-11T23:16:57.009Z,12.00
2018-11-11T23:19:25.058Z,12.00
2018-11-11T23:21:53.106Z,11.90
2018-11-11T23:24:21.152Z,11.90
2018-11-11T23:26:49.206Z,11.90
2018-11-11T23:29:17.250Z,11.90
2018-11-11T23:31:45.303Z,11.90
2018-11-11T23:34:13.618Z,11.90
2018-11-11T23:36:41.666Z,11.80
2018-11-11T23:39:10.377Z,11.80
2018-11-11T23:41:38.578Z,11.80
2018-11-11T23:44:07.438Z,11.80
2018-11-11T23:46:35.614Z,11.70
2018-11-11T23:49:03.717Z,11.70
2018-11-11T23:51:31.762Z,11.70
2018-11-11T23:53:59.800Z,11.80
2018-11-11T23:56:27.962Z,11.70
2018-11-11T23:58:56.174Z,11.70
